Time;durP1;ratioP1;P1;durP2;ratioP2;P2;SDS_P1;SDS_P2;PMS_P1;PMS_P2;Temp;Humidity;BMP_temperature;BMP_pressure;BME280_temperature;BME280_humidity;BME280_pressure;Samples;Min_cycle;Max_cycle;Signal;HPM_P1;HPM_P2
2024/01/07 00:02:15;;;;;;;14.15;7.00;;;;;;;;;;5049448;28;20051;-64
2024/01/07 00:04:41;;;;;;;13.68;7.22;;;;;;;;;;5064314;28;20050;-64
2024/01/07 00:07:07;;;;;;;13.25;5.90;;;;;;;;;;5049893;28;20047;-64
2024/01/07 00:09:33;;;;;;;11.55;7.07;;;;;;;;;;5049488;28;21747;-64
2024/01/07 00:11:59;;;;;;;11.05;6.40;;;;;;;;;;5051252;28;20039;-64
2024/01/07 00:14:25;;;;;;;10.18;5.47;;;;;;;;;;5049274;28;20746;-64
2024/01/07 00:16:51;;;;;;;10.75;5.80;;;;;;;;;;5050403;28;21191;-64
2024/01/07 00:19:17;;;;;;;10.90;6.05;;;;;;;;;;5050441;28;21040;-66
2024/01/07 00:21:43;;;;;;;12.82;5.65;;;;;;;;;;5049862;28;20495;-64
2024/01/07 00:24:09;;;;;;;13.15;6.20;;;;;;;;;;5050464;28;20521;-64
2024/01/07 00:26:35;;;;;;;10.52;5.65;;;;;;;;;;5050141;28;20542;-64
2024/01/07 00:29:02;;;;;;;10.02;5.50;;;;;;;;;;5063260;28;20411;-64
2024/01/07 00:31:28;;;;;;;12.55;6.50;;;;;;;;;;5049218;28;20032;-64
2024/01/07 00:33:54;;;;;;;14.98;6.75;;;;;;;;;;5049704;28;20048;-64
2024/01/07 00:36:20;;;;;;;10.95;5.90;;;;;;;;;;5050015;28;20047;-64
2024/01/07 00:38:46;;;;;;;11.10;6.18;;;;;;;;;;5049059;28;20063;-64
2024/01/07 00:41:12;;;;;;;11.63;5.90;;;;;;;;;;5050253;28;20025;-64
2024/01/07 00:43:38;;;;;;;13.90;5.85;;;;;;;;;;5048334;28;20029;-64
2024/01/07 00:46:05;;;;;;;12.35;6.78;;;;;;;;;;5049047;28;20039;-63
2024/01/07 00:48:31;;;;;;;12.77;6.40;;;;;;;;;;5049819;28;20032;-63
2024/01/07 00:50:57;;;;;;;9.77;5.65;;;;;;;;;;5050126;28;20123;-63
2024/01/07 00:53:23;;;;;;;10.40;6.80;;;;;;;;;;5049722;28;20037;-63
2024/01/07 00:55:49;;;;;;;14.52;6.47;;;;;;;;;;5048996;28;20098;-64
2024/01/07 00:58:15;;;;;;;10.32;5.45;;;;;;;;;;5047981;28;20644;-64
2024/01/07 01:00:41;;;;;;;9.93;5.78;;;;;;;;;;5048771;28;20976;-63
2024/01/07 01:03:07;;;;;;;12.48;6.18;;;;;;;;;;5049132;28;21037;-64
2024/01/07 01:05:33;;;;;;;12.63;5.95;;;;;;;;;;5049922;28;20036;-63
2024/01/07 01:07:59;;;;;;;11.15;5.82;;;;;;;;;;5049465;28;20044;-64
2024/01/07 01:10:25;;;;;;;9.38;5.55;;;;;;;;;;5040427;28;20609;-64
2024/01/07 01:12:54;;;;;;;10.00;5.30;;;;;;;;;;5062631;28;20055;-64
2024/01/07 01:15:20;;;;;;;10.00;5.28;;;;;;;;;;5048561;28;20426;-64
2024/01/07 01:17:46;;;;;;;9.32;5.45;;;;;;;;;;5049531;28;20430;-64
2024/01/07 01:20:12;;;;;;;10.07;5.05;;;;;;;;;;5049167;28;20066;-64
2024/01/07 01:22:38;;;;;;;9.88;5.15;;;;;;;;;;5049488;28;20044;-64
2024/01/07 01:25:04;;;;;;;9.23;4.85;;;;;;;;;;5049760;28;20147;-64
2024/01/07 01:27:30;;;;;;;9.68;5.38;;;;;;;;;;5047395;28;20043;-64
2024/01/07 01:29:56;;;;;;;9.10;5.20;;;;;;;;;;5048519;28;20036;-64
2024/01/07 01:32:22;;;;;;;10.23;5.53;;;;;;;;;;5048551;28;20133;-64
2024/01/07 01:34:48;;;;;;;9.00;5.70;;;;;;;;;;5049995;28;20082;-64
2024/01/07 01:37:14;;;;;;;7.80;4.32;;;;;;;;;;5048589;28;20040;-64
2024/01/07 01:39:43;;;;;;;11.35;5.38;;;;;;;;;;5049321;28;20036;-64
2024/01/07 01:42:09;;;;;;;10.85;5.30;;;;;;;;;;5047720;28;20036;-64
2024/01/07 01:44:35;;;;;;;8.45;4.90;;;;;;;;;;5060961;28;21795;-63
2024/01/07 01:47:02;;;;;;;8.88;5.28;;;;;;;;;;5039917;28;21226;-64
2024/01/07 01:49:28;;;;;;;9.85;5.38;;;;;;;;;;5049359;28;20709;-64
2024/01/07 01:51:54;;;;;;;9.27;5.20;;;;;;;;;;5049356;28;20036;-64
2024/01/07 01:54:21;;;;;;;11.07;5.88;;;;;;;;;;5048462;28;20044;-64
2024/01/07 01:56:48;;;;;;;9.57;5.18;;;;;;;;;;5039907;28;20383;-63
2024/01/07 01:59:16;;;;;;;8.98;5.05;;;;;;;;;;5047867;28;20044;-63
2024/01/07 02:01:42;;;;;;;9.55;5.45;;;;;;;;;;5048625;28;20578;-64
2024/01/07 02:04:09;;;;;;;9.10;5.50;;;;;;;;;;5047729;28;20055;-64
2024/01/07 02:06:35;;;;;;;9.35;5.05;;;;;;;;;;5047890;28;20028;-64
2024/01/07 02:09:02;;;;;;;9.10;5.35;;;;;;;;;;5048372;28;20040;-64
2024/01/07 02:11:28;;;;;;;10.65;5.43;;;;;;;;;;5047940;28;20040;-64
2024/01/07 02:13:54;;;;;;;11.23;5.57;;;;;;;;;;5038543;28;20052;-63
2024/01/07 02:16:20;;;;;;;9.35;4.95;;;;;;;;;;5048230;28;20033;-63
2024/01/07 02:18:46;;;;;;;8.98;4.72;;;;;;;;;;5048335;28;20039;-64
2024/01/07 02:21:15;;;;;;;10.82;5.30;;;;;;;;;;5048352;28;20079;-63
2024/01/07 02:23:41;;;;;;;9.68;4.72;;;;;;;;;;5047942;28;20036;-64
2024/01/07 02:26:07;;;;;;;8.02;4.55;;;;;;;;;;5048459;28;20032;-64
2024/01/07 02:28:34;;;;;;;8.35;4.32;;;;;;;;;;5047761;28;20029;-64
2024/01/07 02:31:00;;;;;;;9.48;5.00;;;;;;;;;;5047820;28;20066;-63
2024/01/07 02:33:26;;;;;;;11.55;4.88;;;;;;;;;;5047979;28;21476;-64
2024/01/07 02:35:52;;;;;;;13.02;5.20;;;;;;;;;;5048758;28;20047;-64
2024/01/07 02:38:18;;;;;;;12.35;5.32;;;;;;;;;;5047602;28;20028;-64
2024/01/07 02:40:44;;;;;;;8.18;4.45;;;;;;;;;;5047810;28;20156;-63
2024/01/07 02:43:10;;;;;;;11.63;4.70;;;;;;;;;;5048526;28;20132;-64
2024/01/07 02:45:37;;;;;;;9.35;5.25;;;;;;;;;;5046851;28;20568;-64
2024/01/07 02:48:03;;;;;;;9.07;4.13;;;;;;;;;;5048444;28;20128;-64
2024/01/07 02:50:29;;;;;;;9.30;4.28;;;;;;;;;;5047893;28;20029;-64
2024/01/07 02:52:55;;;;;;;7.85;4.13;;;;;;;;;;5050458;28;20043;-64
2024/01/07 02:55:21;;;;;;;8.80;4.38;;;;;;;;;;5051881;28;20067;-64
2024/01/07 02:57:47;;;;;;;11.88;5.03;;;;;;;;;;5046801;28;20087;-64
2024/01/07 03:00:13;;;;;;;8.48;4.43;;;;;;;;;;5051215;28;20033;-64
2024/01/07 03:02:39;;;;;;;8.95;4.32;;;;;;;;;;5049889;28;20062;-64
2024/01/07 03:05:05;;;;;;;9.00;3.85;;;;;;;;;;5050639;28;20048;-64
2024/01/07 03:07:32;;;;;;;7.88;4.32;;;;;;;;;;5050401;28;20111;-64
2024/01/07 03:09:58;;;;;;;9.40;4.20;;;;;;;;;;5049932;28;20037;-64
2024/01/07 03:12:24;;;;;;;15.82;4.10;;;;;;;;;;5050279;28;20040;-63
2024/01/07 03:14:50;;;;;;;10.35;3.72;;;;;;;;;;5051728;28;20040;-63
2024/01/07 03:17:17;;;;;;;9.70;3.78;;;;;;;;;;5050878;28;20067;-64
2024/01/07 03:19:43;;;;;;;5.93;3.05;;;;;;;;;;5051436;28;20060;-63
2024/01/07 03:22:09;;;;;;;10.65;3.75;;;;;;;;;;5050574;28;20131;-64
2024/01/07 03:24:35;;;;;;;7.68;3.33;;;;;;;;;;5051708;28;20035;-64
2024/01/07 03:27:01;;;;;;;8.45;3.65;;;;;;;;;;5050678;28;20028;-63
2024/01/07 03:29:27;;;;;;;7.65;3.25;;;;;;;;;;5050761;28;20073;-64
2024/01/07 03:31:53;;;;;;;7.10;3.33;;;;;;;;;;5049818;28;20484;-64
2024/01/07 03:34:20;;;;;;;7.50;3.08;;;;;;;;;;5050505;28;20036;-64
2024/01/07 03:36:46;;;;;;;12.20;3.00;;;;;;;;;;5050683;28;20039;-64
2024/01/07 03:39:12;;;;;;;7.93;3.58;;;;;;;;;;5050310;28;20036;-64
2024/01/07 03:41:38;;;;;;;6.97;2.67;;;;;;;;;;5050517;28;20032;-64
2024/01/07 03:44:04;;;;;;;8.52;3.15;;;;;;;;;;5050333;28;20044;-64
2024/01/07 03:46:30;;;;;;;6.10;3.10;;;;;;;;;;5051122;28;20094;-64
2024/01/07 03:48:56;;;;;;;6.45;3.03;;;;;;;;;;5050572;28;20032;-64
2024/01/07 03:51:22;;;;;;;8.23;2.90;;;;;;;;;;5050316;28;20040;-64
2024/01/07 03:53:48;;;;;;;8.68;3.03;;;;;;;;;;5050269;28;20036;-64
2024/01/07 03:56:14;;;;;;;6.82;3.17;;;;;;;;;;5050974;28;20032;-63
2024/01/07 03:58:40;;;;;;;5.75;2.70;;;;;;;;;;5050545;28;20032;-64
2024/01/07 04:01:06;;;;;;;6.85;3.05;;;;;;;;;;5058741;28;20036;-63
2024/01/07 04:03:32;;;;;;;5.78;2.42;;;;;;;;;;5049587;28;20051;-64
2024/01/07 04:05:58;;;;;;;6.95;2.78;;;;;;;;;;5049740;28;20101;-63
2024/01/07 04:08:25;;;;;;;5.55;2.55;;;;;;;;;;5048226;28;20145;-64
2024/01/07 04:10:51;;;;;;;6.22;2.40;;;;;;;;;;5048565;28;20063;-64
2024/01/07 04:13:17;;;;;;;7.88;2.22;;;;;;;;;;5048766;28;20648;-64
2024/01/07 04:15:43;;;;;;;7.05;2.10;;;;;;;;;;5050161;28;20036;-64
2024/01/07 04:18:09;;;;;;;5.20;2.38;;;;;;;;;;5050274;28;20617;-64
2024/01/07 04:20:35;;;;;;;7.00;2.75;;;;;;;;;;5050096;28;20114;-64
2024/01/07 04:23:01;;;;;;;8.10;2.35;;;;;;;;;;5048937;28;20045;-64
2024/01/07 04:25:27;;;;;;;5.68;2.70;;;;;;;;;;5050646;28;20047;-64
2024/01/07 04:27:53;;;;;;;4.63;2.35;;;;;;;;;;5050080;28;20434;-64
2024/01/07 04:30:20;;;;;;;8.00;2.53;;;;;;;;;;5050202;28;20051;-64
2024/01/07 04:32:46;;;;;;;9.35;2.65;;;;;;;;;;5050796;28;20035;-64
2024/01/07 04:35:12;;;;;;;5.40;2.53;;;;;;;;;;5050226;28;20050;-64
2024/01/07 04:37:38;;;;;;;8.52;2.40;;;;;;;;;;5050162;28;20040;-64
2024/01/07 04:40:04;;;;;;;5.72;2.25;;;;;;;;;;5049350;28;20036;-64
2024/01/07 04:42:30;;;;;;;7.57;2.20;;;;;;;;;;5050226;28;20790;-64
2024/01/07 04:44:57;;;;;;;4.50;2.20;;;;;;;;;;5062269;28;20041;-64
2024/01/07 04:47:31;;;;;;;5.65;2.42;;;;;;;;;;5050194;28;20119;-64
2024/01/07 04:49:58;;;;;;;6.07;2.08;;;;;;;;;;5049551;28;21054;-64
2024/01/07 04:52:25;;;;;;;7.72;2.35;;;;;;;;;;5049906;28;20025;-66
2024/01/07 04:54:51;;;;;;;6.07;2.15;;;;;;;;;;5048916;28;20036;-64
2024/01/07 04:57:17;;;;;;;5.20;2.35;;;;;;;;;;5050287;28;20036;-64
2024/01/07 04:59:44;;;;;;;7.10;2.22;;;;;;;;;;5050307;28;20032;-64
2024/01/07 05:02:11;;;;;;;4.28;1.95;;;;;;;;;;5049392;28;20079;-64
2024/01/07 05:04:37;;;;;;;5.80;2.25;;;;;;;;;;5049271;28;20129;-64
2024/01/07 05:07:03;;;;;;;6.47;2.53;;;;;;;;;;5048487;28;20040;-64
2024/01/07 05:09:29;;;;;;;8.20;2.15;;;;;;;;;;5049869;28;20506;-64
2024/01/07 05:11:55;;;;;;;5.10;1.80;;;;;;;;;;5048712;28;21809;-64
2024/01/07 05:14:22;;;;;;;5.65;2.00;;;;;;;;;;5049436;28;20774;-64
2024/01/07 05:16:48;;;;;;;6.45;1.98;;;;;;;;;;5049713;28;20039;-64
2024/01/07 05:19:14;;;;;;;4.63;2.22;;;;;;;;;;5049306;28;20955;-64
2024/01/07 05:21:40;;;;;;;4.65;1.80;;;;;;;;;;5049209;28;20033;-64
2024/01/07 05:24:06;;;;;;;3.88;1.77;;;;;;;;;;5049391;28;20041;-64
2024/01/07 05:26:39;;;;;;;4.63;1.60;;;;;;;;;;5049205;28;20040;-64
2024/01/07 05:29:06;;;;;;;5.30;1.77;;;;;;;;;;5048281;28;20935;-64
2024/01/07 05:31:32;;;;;;;3.75;1.50;;;;;;;;;;5049433;28;20518;-64
2024/01/07 05:33:58;;;;;;;5.53;1.63;;;;;;;;;;5049687;28;20087;-64
2024/01/07 05:36:24;;;;;;;5.72;1.88;;;;;;;;;;5048616;28;20028;-63
2024/01/07 05:38:50;;;;;;;5.20;2.25;;;;;;;;;;5048773;28;20174;-64
2024/01/07 05:41:16;;;;;;;6.05;1.70;;;;;;;;;;5049208;28;20032;-64
2024/01/07 05:43:43;;;;;;;6.72;1.90;;;;;;;;;;5049197;28;20036;-64
2024/01/07 05:46:10;;;;;;;4.10;1.77;;;;;;;;;;5048709;28;20036;-64
2024/01/07 05:48:46;;;;;;;3.65;1.50;;;;;;;;;;5049124;28;20029;-63
2024/01/07 05:51:12;;;;;;;3.63;1.65;;;;;;;;;;5048906;28;20637;-64
2024/01/07 05:53:38;;;;;;;2.33;1.20;;;;;;;;;;5049206;28;20039;-64
2024/01/07 05:56:04;;;;;;;7.13;1.90;;;;;;;;;;5049336;28;20028;-64
2024/01/07 05:58:31;;;;;;;3.08;1.35;;;;;;;;;;5048764;28;20036;-64
2024/01/07 06:00:57;;;;;;;5.90;1.60;;;;;;;;;;5048224;28;20121;-64
2024/01/07 06:03:23;;;;;;;5.32;1.58;;;;;;;;;;5048289;28;22202;-64
2024/01/07 06:05:49;;;;;;;6.05;1.77;;;;;;;;;;5048935;28;20890;-63
2024/01/07 06:08:15;;;;;;;5.20;1.60;;;;;;;;;;5049825;28;20711;-64
2024/01/07 06:10:41;;;;;;;4.93;1.67;;;;;;;;;;5048624;28;20052;-64
2024/01/07 06:13:07;;;;;;;3.35;1.20;;;;;;;;;;5049063;28;20036;-63
2024/01/07 06:15:33;;;;;;;6.32;1.80;;;;;;;;;;5048808;28;20040;-64
2024/01/07 06:18:00;;;;;;;4.38;1.38;;;;;;;;;;5047462;28;20491;-64
2024/01/07 06:20:26;;;;;;;6.82;1.77;;;;;;;;;;5048811;28;20032;-64
2024/01/07 06:22:52;;;;;;;3.80;1.55;;;;;;;;;;5048681;28;20044;-64
2024/01/07 06:25:18;;;;;;;2.63;1.20;;;;;;;;;;5048717;28;20094;-64
2024/01/07 06:27:44;;;;;;;4.60;1.60;;;;;;;;;;5047311;28;20125;-64
2024/01/07 06:30:10;;;;;;;4.25;1.50;;;;;;;;;;5048128;28;20510;-63
2024/01/07 06:32:36;;;;;;;4.53;1.30;;;;;;;;;;5047268;28;20028;-63
2024/01/07 06:35:03;;;;;;;3.90;1.23;;;;;;;;;;5048279;28;20127;-63
2024/01/07 06:37:29;;;;;;;5.97;1.95;;;;;;;;;;5049062;28;20078;-63
2024/01/07 06:39:56;;;;;;;5.57;1.45;;;;;;;;;;5048250;28;20083;-63
2024/01/07 06:42:22;;;;;;;5.22;1.30;;;;;;;;;;5048448;28;20032;-65
2024/01/07 06:44:48;;;;;;;2.30;1.05;;;;;;;;;;5046865;28;20045;-64
2024/01/07 06:47:14;;;;;;;3.47;1.40;;;;;;;;;;5048453;28;20039;-64
2024/01/07 06:49:40;;;;;;;2.90;1.05;;;;;;;;;;5048229;28;20073;-67
2024/01/07 06:52:07;;;;;;;4.90;1.23;;;;;;;;;;5048800;28;20680;-64
2024/01/07 06:54:33;;;;;;;5.60;1.08;;;;;;;;;;5048508;28;21792;-64
2024/01/07 06:56:59;;;;;;;4.78;1.00;;;;;;;;;;5048252;28;20044;-64
2024/01/07 06:59:25;;;;;;;5.25;1.35;;;;;;;;;;5048491;28;20025;-64
2024/01/07 07:01:51;;;;;;;4.50;1.33;;;;;;;;;;5048120;28;20742;-64
2024/01/07 07:04:17;;;;;;;3.72;1.20;;;;;;;;;;5046711;28;20657;-64
2024/01/07 07:06:43;;;;;;;4.53;1.45;;;;;;;;;;5060994;28;20660;-64
2024/01/07 07:09:12;;;;;;;4.13;1.02;;;;;;;;;;5048091;28;20032;-64
2024/01/07 07:11:38;;;;;;;5.60;1.52;;;;;;;;;;5048695;28;20032;-64
2024/01/07 07:14:04;;;;;;;5.47;1.30;;;;;;;;;;5047080;28;20365;-65
2024/01/07 07:16:30;;;;;;;2.78;0.95;;;;;;;;;;5048453;28;20024;-64
2024/01/07 07:18:56;;;;;;;4.85;1.17;;;;;;;;;;5048310;28;20171;-64
2024/01/07 07:21:23;;;;;;;3.58;0.98;;;;;;;;;;5045683;28;20075;-64
2024/01/07 07:23:49;;;;;;;2.40;0.90;;;;;;;;;;5048441;28;20058;-64
2024/01/07 07:26:15;;;;;;;3.05;0.90;;;;;;;;;;5048268;28;20127;-64
2024/01/07 07:28:41;;;;;;;3.05;0.90;;;;;;;;;;5048021;28;20082;-64
2024/01/07 07:31:07;;;;;;;3.92;1.10;;;;;;;;;;5048212;28;20036;-64
2024/01/07 07:33:33;;;;;;;5.07;1.35;;;;;;;;;;5048466;28;20484;-64
2024/01/07 07:35:59;;;;;;;4.03;1.13;;;;;;;;;;5046434;28;20166;-64
2024/01/07 07:38:25;;;;;;;2.55;0.95;;;;;;;;;;5048480;28;20542;-64
2024/01/07 07:40:52;;;;;;;3.22;1.05;;;;;;;;;;5051550;28;20041;-64
2024/01/07 07:43:20;;;;;;;3.35;1.20;;;;;;;;;;5050909;28;20083;-65
2024/01/07 07:45:46;;;;;;;4.20;1.17;;;;;;;;;;5051531;28;20052;-64
2024/01/07 07:48:12;;;;;;;2.90;1.20;;;;;;;;;;5051340;28;20032;-65
2024/01/07 07:50:38;;;;;;;3.03;1.10;;;;;;;;;;5051461;28;20549;-63
2024/01/07 07:53:04;;;;;;;3.72;1.30;;;;;;;;;;5049815;28;20188;-64
2024/01/07 07:55:30;;;;;;;3.72;1.08;;;;;;;;;;5050800;28;20049;-65
2024/01/07 07:57:57;;;;;;;3.42;1.20;;;;;;;;;;5046826;28;20055;-64
2024/01/07 08:00:24;;;;;;;3.53;1.52;;;;;;;;;;5050121;28;20079;-64
2024/01/07 08:02:50;;;;;;;2.83;1.05;;;;;;;;;;5050961;28;20033;-64
2024/01/07 08:05:16;;;;;;;3.10;1.50;;;;;;;;;;5050966;28;20044;-64
2024/01/07 08:07:42;;;;;;;3.72;1.05;;;;;;;;;;5051168;28;20029;-64
2024/01/07 08:10:08;;;;;;;4.93;1.55;;;;;;;;;;5050387;28;20040;-64
2024/01/07 08:12:35;;;;;;;5.10;1.30;;;;;;;;;;5050383;28;20156;-64
2024/01/07 08:15:01;;;;;;;2.75;1.20;;;;;;;;;;5050445;28;20033;-64
2024/01/07 08:17:28;;;;;;;2.30;1.00;;;;;;;;;;5049433;28;20036;-64
2024/01/07 08:19:54;;;;;;;3.38;1.08;;;;;;;;;;5050450;28;20040;-64
2024/01/07 08:22:20;;;;;;;3.33;1.20;;;;;;;;;;5050944;28;20040;-64
2024/01/07 08:24:46;;;;;;;3.88;1.15;;;;;;;;;;5050843;28;20041;-64
2024/01/07 08:27:12;;;;;;;2.92;1.33;;;;;;;;;;5051012;28;20120;-64
2024/01/07 08:29:38;;;;;;;2.50;1.02;;;;;;;;;;5049762;28;20060;-64
2024/01/07 08:32:04;;;;;;;2.92;1.10;;;;;;;;;;5051253;28;20036;-64
2024/01/07 08:34:30;;;;;;;3.17;1.30;;;;;;;;;;5049998;28;20048;-64
2024/01/07 08:36:56;;;;;;;4.05;1.25;;;;;;;;;;5050790;28;20032;-64
2024/01/07 08:39:23;;;;;;;3.60;1.08;;;;;;;;;;5051237;28;20047;-64
2024/01/07 08:41:49;;;;;;;2.22;0.95;;;;;;;;;;5051172;28;20045;-64
2024/01/07 08:44:15;;;;;;;4.63;1.30;;;;;;;;;;5050200;28;20032;-64
2024/01/07 08:46:41;;;;;;;2.63;1.00;;;;;;;;;;5049804;28;20533;-64
2024/01/07 08:49:07;;;;;;;2.53;1.00;;;;;;;;;;5049411;28;20482;-64
2024/01/07 08:51:33;;;;;;;7.30;1.77;;;;;;;;;;5050164;28;20067;-64
2024/01/07 08:53:59;;;;;;;4.88;1.38;;;;;;;;;;5050194;28;20067;-64
2024/01/07 08:56:25;;;;;;;3.30;0.88;;;;;;;;;;5050393;28;20040;-64
2024/01/07 08:58:52;;;;;;;5.45;1.25;;;;;;;;;;5048357;28;20098;-64
2024/01/07 09:01:18;;;;;;;4.22;1.25;;;;;;;;;;5049452;28;20186;-64
2024/01/07 09:03:44;;;;;;;2.70;0.90;;;;;;;;;;5047807;28;20040;-64
2024/01/07 09:06:10;;;;;;;3.13;0.80;;;;;;;;;;5049547;28;21114;-64
2024/01/07 09:08:36;;;;;;;4.72;1.23;;;;;;;;;;5049748;28;20397;-64
2024/01/07 09:11:06;;;;;;;4.25;1.20;;;;;;;;;;5049927;28;20027;-64
2024/01/07 09:13:32;;;;;;;5.28;1.20;;;;;;;;;;5048802;28;20031;-64
2024/01/07 09:15:58;;;;;;;3.10;0.90;;;;;;;;;;5049839;28;20040;-64
2024/01/07 09:18:24;;;;;;;2.03;0.80;;;;;;;;;;5049760;28;20033;-64
2024/01/07 09:20:50;;;;;;;2.50;1.35;;;;;;;;;;5048245;28;20078;-64
2024/01/07 09:23:16;;;;;;;3.97;1.15;;;;;;;;;;5048821;28;20036;-64
2024/01/07 09:25:43;;;;;;;2.85;1.13;;;;;;;;;;5048977;28;20036;-64
2024/01/07 09:28:09;;;;;;;3.47;1.30;;;;;;;;;;5048632;28;20052;-64
2024/01/07 09:30:35;;;;;;;4.75;1.10;;;;;;;;;;5040936;28;20482;-64
2024/01/07 09:33:01;;;;;;;4.07;1.10;;;;;;;;;;5040930;28;20189;-64
2024/01/07 09:35:27;;;;;;;2.58;0.82;;;;;;;;;;5044827;28;20035;-63
2024/01/07 09:37:54;;;;;;;3.33;1.05;;;;;;;;;;5044985;28;20032;-64
2024/01/07 09:40:20;;;;;;;3.40;1.15;;;;;;;;;;5037897;28;20020;-64
2024/01/07 09:42:47;;;;;;;2.03;0.90;;;;;;;;;;5038984;28;20047;-64
2024/01/07 09:45:14;;;;;;;5.65;1.25;;;;;;;;;;5039594;28;20032;-64
2024/01/07 09:47:44;;;;;;;3.22;1.35;;;;;;;;;;5039973;28;20039;-64
2024/01/07 09:50:11;;;;;;;2.95;1.13;;;;;;;;;;5040972;28;20044;-64
2024/01/07 09:52:39;;;;;;;5.22;1.30;;;;;;;;;;5049696;28;20711;-64
2024/01/07 09:55:08;;;;;;;4.53;1.38;;;;;;;;;;5039754;28;20028;-64
2024/01/07 09:57:34;;;;;;;4.97;1.67;;;;;;;;;;5039224;28;20028;-64
2024/01/07 10:00:02;;;;;;;3.00;1.50;;;;;;;;;;5038808;28;20025;-64
2024/01/07 10:02:28;;;;;;;7.43;1.95;;;;;;;;;;5038787;28;20068;-64
2024/01/07 10:04:54;;;;;;;3.70;1.88;;;;;;;;;;5040113;28;20037;-64
2024/01/07 10:07:20;;;;;;;6.40;1.95;;;;;;;;;;5040066;28;20044;-64
2024/01/07 10:09:46;;;;;;;4.55;1.55;;;;;;;;;;5040461;28;20028;-64
2024/01/07 10:12:12;;;;;;;6.68;1.48;;;;;;;;;;5039263;28;20116;-64
2024/01/07 10:14:41;;;;;;;3.92;1.23;;;;;;;;;;5039082;28;20093;-64
2024/01/07 10:17:17;;;;;;;4.75;1.25;;;;;;;;;;5030802;28;20163;-64
2024/01/07 10:19:46;;;;;;;3.47;1.33;;;;;;;;;;5039671;28;20071;-63
2024/01/07 10:22:14;;;;;;;3.75;1.38;;;;;;;;;;5040167;28;20033;-63
2024/01/07 10:24:40;;;;;;;3.85;1.50;;;;;;;;;;5039602;28;20091;-64
2024/01/07 10:27:07;;;;;;;3.72;1.15;;;;;;;;;;5039543;28;20025;-63
2024/01/07 10:29:33;;;;;;;2.50;1.10;;;;;;;;;;5039463;28;20051;-64
2024/01/07 10:32:04;;;;;;;3.97;1.50;;;;;;;;;;5039877;28;20044;-63
2024/01/07 10:34:34;;;;;;;4.13;1.40;;;;;;;;;;5040521;28;20039;-64
2024/01/07 10:37:01;;;;;;;3.92;1.33;;;;;;;;;;5040532;28;20025;-63
2024/01/07 10:39:27;;;;;;;3.05;1.23;;;;;;;;;;5041323;28;20111;-63
2024/01/07 10:41:57;;;;;;;3.55;1.52;;;;;;;;;;5042192;28;20063;-64
2024/01/07 10:44:24;;;;;;;3.80;1.50;;;;;;;;;;5048847;28;20035;-63
2024/01/07 10:46:50;;;;;;;3.95;1.67;;;;;;;;;;5048919;28;20031;-64
2024/01/07 10:49:24;;;;;;;3.45;1.25;;;;;;;;;;5048172;28;20039;-64
2024/01/07 10:51:50;;;;;;;;;;;;;;;;;;5047544;28;20024;-64
2024/01/07 10:54:16;;;;;;;3.13;1.25;;;;;;;;;;5048497;28;21482;-63
2024/01/07 10:56:46;;;;;;;5.72;1.50;;;;;;;;;;5047203;28;21197;-64
2024/01/07 10:59:12;;;;;;;5.40;1.70;;;;;;;;;;5047122;28;20033;-64
2024/01/07 11:01:39;;;;;;;4.30;1.52;;;;;;;;;;5045219;28;20061;-64
2024/01/07 11:04:09;;;;;;;4.93;1.17;;;;;;;;;;5046848;28;20024;-64
2024/01/07 11:06:54;;;;;;;5.22;2.20;;;;;;;;;;5046288;28;20044;-64
2024/01/07 11:09:34;;;;;;;3.60;1.50;;;;;;;;;;5047174;28;20035;-64
2024/01/07 11:12:00;;;;;;;3.97;1.38;;;;;;;;;;5045377;28;20744;-64
2024/01/07 11:14:39;;;;;;;6.22;1.52;;;;;;;;;;5050383;28;20028;-64
2024/01/07 11:17:06;;;;;;;6.00;1.83;;;;;;;;;;5051827;28;20032;-64
2024/01/07 11:19:32;;;;;;;3.95;1.80;;;;;;;;;;5051569;28;20040;-64
2024/01/07 11:22:27;;;;;;;4.20;1.70;;;;;;;;;;5051872;28;20483;-64
2024/01/07 11:24:56;;;;;;;6.95;1.95;;;;;;;;;;5049203;28;20902;-64
2024/01/07 11:27:22;;;;;;;4.78;1.90;;;;;;;;;;5051508;28;20148;-64
2024/01/07 11:29:58;;;;;;;6.57;1.92;;;;;;;;;;5051377;28;20028;-63
2024/01/07 11:32:25;;;;;;;4.88;2.10;;;;;;;;;;5051516;28;20127;-64
2024/01/07 11:34:53;;;;;;;6.72;2.15;;;;;;;;;;5052046;28;20067;-64
2024/01/07 11:37:19;;;;;;;7.20;2.03;;;;;;;;;;5051550;28;20111;-63
2024/01/07 11:39:46;;;;;;;6.00;2.40;;;;;;;;;;5050858;28;20457;-64
2024/01/07 11:42:12;;;;;;;5.40;2.10;;;;;;;;;;5049785;28;20095;-64
2024/01/07 11:44:38;;;;;;;5.68;2.20;;;;;;;;;;5051350;28;20085;-64
2024/01/07 11:47:05;;;;;;;4.90;1.80;;;;;;;;;;5051200;28;20032;-64
2024/01/07 11:49:33;;;;;;;4.82;2.50;;;;;;;;;;5051164;28;20032;-64
2024/01/07 11:51:59;;;;;;;6.35;2.10;;;;;;;;;;5051208;28;21204;-64
2024/01/07 11:54:25;;;;;;;5.20;1.90;;;;;;;;;;5050688;28;20159;-64
2024/01/07 11:56:51;;;;;;;5.80;1.95;;;;;;;;;;5049784;28;20931;-64
2024/01/07 11:59:17;;;;;;;7.50;2.40;;;;;;;;;;5050537;28;20749;-64
2024/01/07 12:01:43;;;;;;;7.30;2.38;;;;;;;;;;5050601;28;21448;-64
2024/01/07 12:04:11;;;;;;;7.82;2.55;;;;;;;;;;5050549;28;20775;-64
2024/01/07 12:06:38;;;;;;;6.55;2.17;;;;;;;;;;5064190;28;20044;-64
2024/01/07 12:09:04;;;;;;;5.40;2.08;;;;;;;;;;5050017;28;20814;-63
2024/01/07 12:11:30;;;;;;;6.95;2.60;;;;;;;;;;5050784;28;20044;-64
2024/01/07 12:13:56;;;;;;;7.68;2.40;;;;;;;;;;5050176;28;20028;-64
2024/01/07 12:16:22;;;;;;;7.68;2.72;;;;;;;;;;5050226;28;20086;-64
2024/01/07 12:18:48;;;;;;;6.25;2.70;;;;;;;;;;5050218;28;20040;-64
2024/01/07 12:21:21;;;;;;;6.57;2.78;;;;;;;;;;5049961;28;20135;-63
2024/01/07 12:23:50;;;;;;;7.00;2.25;;;;;;;;;;5049637;28;20085;-64
2024/01/07 12:26:16;;;;;;;6.13;2.38;;;;;;;;;;5049492;28;20041;-64
2024/01/07 12:28:42;;;;;;;7.03;2.35;;;;;;;;;;5049974;28;20116;-64
2024/01/07 12:31:08;;;;;;;8.27;2.83;;;;;;;;;;5049855;28;20043;-64
2024/01/07 12:33:35;;;;;;;9.98;2.70;;;;;;;;;;5048781;28;20044;-64
2024/01/07 12:36:01;;;;;;;6.45;2.55;;;;;;;;;;5048735;28;20029;-64
2024/01/07 12:38:27;;;;;;;10.27;2.95;;;;;;;;;;5048579;28;20052;-64
2024/01/07 12:40:54;;;;;;;7.78;2.60;;;;;;;;;;5049895;28;20940;-64
2024/01/07 12:43:20;;;;;;;6.18;2.60;;;;;;;;;;5050356;28;20194;-64
2024/01/07 12:45:46;;;;;;;8.75;2.45;;;;;;;;;;5049403;28;20696;-64
2024/01/07 12:48:12;;;;;;;7.00;3.08;;;;;;;;;;5049523;28;20040;-64
2024/01/07 12:50:38;;;;;;;5.43;2.13;;;;;;;;;;5049220;28;20041;-64
2024/01/07 12:53:05;;;;;;;5.30;2.25;;;;;;;;;;5049156;28;20078;-64
2024/01/07 12:55:31;;;;;;;8.00;2.40;;;;;;;;;;5047480;28;20044;-64
2024/01/07 12:58:01;;;;;;;7.10;2.70;;;;;;;;;;5048889;28;20048;-64
2024/01/07 13:00:28;;;;;;;6.80;2.40;;;;;;;;;;5048836;28;20118;-64
2024/01/07 13:02:54;;;;;;;7.93;2.80;;;;;;;;;;5049893;28;20021;-64
2024/01/07 13:05:21;;;;;;;5.15;2.25;;;;;;;;;;5048377;28;20032;-64
2024/01/07 13:07:47;;;;;;;6.78;2.50;;;;;;;;;;5049189;28;20040;-64
2024/01/07 13:10:14;;;;;;;6.88;2.80;;;;;;;;;;5048901;28;20032;-64
2024/01/07 13:12:40;;;;;;;7.75;2.50;;;;;;;;;;5048472;28;20511;-64
2024/01/07 13:15:06;;;;;;;5.97;1.90;;;;;;;;;;5049642;28;20083;-64
2024/01/07 13:17:32;;;;;;;8.88;2.60;;;;;;;;;;5049631;28;20563;-64
2024/01/07 13:19:59;;;;;;;11.05;3.22;;;;;;;;;;5047802;28;20047;-64
2024/01/07 13:22:25;;;;;;;8.07;3.25;;;;;;;;;;5048672;28;20081;-64
2024/01/07 13:24:51;;;;;;;6.70;2.60;;;;;;;;;;5049539;28;20407;-64
2024/01/07 13:27:18;;;;;;;6.45;2.70;;;;;;;;;;5049075;28;20024;-64
2024/01/07 13:29:46;;;;;;;9.00;3.83;;;;;;;;;;5039840;28;20031;-64
2024/01/07 13:32:17;;;;;;;5.13;2.15;;;;;;;;;;5043470;28;20608;-64
2024/01/07 13:34:43;;;;;;;8.18;2.65;;;;;;;;;;5048502;28;20067;-64
2024/01/07 13:37:10;;;;;;;8.07;2.72;;;;;;;;;;5047630;28;20032;-64
2024/01/07 13:39:36;;;;;;;6.22;2.78;;;;;;;;;;5049548;28;20056;-64
2024/01/07 13:42:02;;;;;;;6.07;2.45;;;;;;;;;;5047418;28;20047;-63
2024/01/07 13:44:28;;;;;;;6.40;2.05;;;;;;;;;;5049212;28;20047;-64
2024/01/07 13:46:54;;;;;;;6.95;2.22;;;;;;;;;;5049000;28;20070;-64
2024/01/07 13:49:20;;;;;;;5.40;2.40;;;;;;;;;;5048983;28;20032;-64
2024/01/07 13:51:46;;;;;;;6.00;2.30;;;;;;;;;;5049011;28;20028;-64
2024/01/07 13:54:14;;;;;;;6.57;2.55;;;;;;;;;;5048359;28;20028;-64
2024/01/07 13:56:44;;;;;;;7.03;2.40;;;;;;;;;;5049235;28;20036;-64
2024/01/07 13:59:10;;;;;;;8.77;3.00;;;;;;;;;;5048080;28;20028;-64
2024/01/07 14:01:36;;;;;;;5.93;2.58;;;;;;;;;;5039649;28;20064;-64
2024/01/07 14:04:04;;;;;;;7.63;2.72;;;;;;;;;;5047550;28;20169;-64
2024/01/07 14:06:30;;;;;;;7.05;2.67;;;;;;;;;;5046297;28;20056;-64
2024/01/07 14:08:56;;;;;;;9.73;3.05;;;;;;;;;;5048426;28;21039;-65
2024/01/07 14:11:22;;;;;;;6.85;2.70;;;;;;;;;;5048923;28;20028;-64
2024/01/07 14:13:48;;;;;;;5.80;2.67;;;;;;;;;;5048629;28;20050;-64
2024/01/07 14:16:14;;;;;;;6.25;2.75;;;;;;;;;;5046744;28;20033;-65
2024/01/07 14:18:41;;;;;;;10.60;3.40;;;;;;;;;;5048691;28;20037;-64
2024/01/07 14:21:07;;;;;;;10.43;3.65;;;;;;;;;;5047883;28;20090;-64
2024/01/07 14:23:34;;;;;;;7.88;2.67;;;;;;;;;;5047867;28;20028;-65
2024/01/07 14:26:00;;;;;;;6.50;2.35;;;;;;;;;;5048345;28;20032;-64
2024/01/07 14:28:26;;;;;;;8.00;2.78;;;;;;;;;;5047792;28;20078;-64
2024/01/07 14:30:52;;;;;;;5.60;2.45;;;;;;;;;;5047371;28;20110;-64
2024/01/07 14:33:18;;;;;;;7.40;2.50;;;;;;;;;;5046508;28;20029;-64
2024/01/07 14:35:45;;;;;;;7.20;3.17;;;;;;;;;;5048219;28;20094;-64
2024/01/07 14:38:11;;;;;;;7.03;2.90;;;;;;;;;;5048027;28;20499;-64